createdAt,value
2018-08-21T00:01:23.813Z,84.27
2018-08-21T00:03:52.874Z,84.34
2018-08-21T00:06:21.335Z,84.69
2018-08-21T00:08:49.454Z,84.22
2018-08-21T00:11:29.045Z,84.94
2018-08-21T00:13:57.178Z,85.00
2018-08-21T00:16:26.649Z,85.26
2018-08-21T00:18:56.181Z,85.92
2018-08-21T00:21:24.818Z,85.84
2018-08-21T00:24:08.349Z,86.24
2018-08-21T00:26:37.053Z,85.82
2018-08-21T00:29:05.602Z,85.97
2018-08-21T00:31:39.574Z,87.11
2018-08-21T00:34:07.681Z,86.55
2018-08-21T00:36:35.802Z,87.71
2018-08-21T00:41:48.757Z,88.19
2018-08-21T00:44:17.122Z,87.73
2018-08-21T00:46:45.249Z,87.85
2018-08-21T00:49:13.970Z,88.23
2018-08-21T00:51:42.605Z,88.17
2018-08-21T00:54:11.174Z,87.73
2018-08-21T00:56:39.483Z,87.69
2018-08-21T00:59:07.658Z,88.56
2018-08-21T01:01:36.422Z,88.14
2018-08-21T01:04:04.874Z,88.55
2018-08-21T01:06:33.815Z,88.60
2018-08-21T01:09:03.218Z,88.09
2018-08-21T01:11:31.354Z,88.51
2018-08-21T01:13:59.462Z,88.84
2018-08-21T01:16:28.309Z,88.62
2018-08-21T01:18:56.470Z,88.32
2018-08-21T01:21:25.165Z,88.50
2018-08-21T01:23:53.294Z,88.69
2018-08-21T01:26:21.874Z,88.74
2018-08-21T01:28:50.325Z,88.73
2018-08-21T01:31:18.810Z,88.62
2018-08-21T01:33:46.945Z,88.33
2018-08-21T01:36:15.458Z,88.91
2018-08-21T01:38:43.922Z,88.38
2018-08-21T01:41:12.361Z,88.61
2018-08-21T01:43:40.827Z,88.42
2018-08-21T01:46:09.794Z,88.31
2018-08-21T01:48:38.243Z,88.81
2018-08-21T01:51:06.623Z,88.86
2018-08-21T01:53:35.277Z,89.19
2018-08-21T01:56:03.744Z,89.25
2018-08-21T01:58:31.914Z,88.94
2018-08-21T02:01:00.159Z,89.04
2018-08-21T02:03:28.541Z,89.17
2018-08-21T02:05:56.649Z,89.87
2018-08-21T02:08:25.033Z,89.88
2018-08-21T02:10:53.549Z,89.07
2018-08-21T02:13:22.426Z,89.19
2018-08-21T02:15:51.353Z,89.15
2018-08-21T02:18:19.806Z,89.06
2018-08-21T02:20:48.267Z,89.63
2018-08-21T02:23:16.390Z,88.86
2018-08-21T02:25:44.558Z,89.26
2018-08-21T02:28:13.006Z,89.29
2018-08-21T02:30:41.179Z,90.07
2018-08-21T02:33:09.742Z,89.85
2018-08-21T02:35:47.934Z,89.99
2018-08-21T02:38:16.276Z,89.83
2018-08-21T02:40:44.874Z,89.82
2018-08-21T02:43:15.470Z,89.28
2018-08-21T02:45:43.988Z,90.00
2018-08-21T02:48:12.436Z,90.81
2018-08-21T02:50:41.155Z,90.63
2018-08-21T02:53:09.281Z,90.80
2018-08-21T02:55:37.769Z,90.33
2018-08-21T02:58:06.550Z,90.23
2018-08-21T03:00:34.798Z,91.33
2018-08-21T03:03:03.513Z,91.41
2018-08-21T03:05:32.213Z,91.07
2018-08-21T03:08:00.902Z,91.23
2018-08-21T03:10:29.434Z,90.77
2018-08-21T03:12:58.107Z,91.14
2018-08-21T03:15:26.584Z,90.83
2018-08-21T03:17:55.238Z,91.39
2018-08-21T03:20:23.371Z,90.65
2018-08-21T03:22:51.511Z,90.83
2018-08-21T03:25:20.158Z,90.87
2018-08-21T03:27:48.653Z,90.77
2018-08-21T03:30:16.783Z,89.97
2018-08-21T03:32:44.907Z,90.38
2018-08-21T03:35:13.364Z,90.70
2018-08-21T03:37:42.126Z,90.42
2018-08-21T03:40:10.673Z,91.37
2018-08-21T03:42:38.992Z,90.81
2018-08-21T03:45:07.377Z,90.60
2018-08-21T03:47:43.071Z,91.27
2018-08-21T03:50:12.149Z,91.02
2018-08-21T03:52:40.826Z,90.67
2018-08-21T03:55:10.309Z,91.08
2018-08-21T03:57:39.237Z,90.93
2018-08-21T04:00:14.558Z,91.13
2018-08-21T04:02:42.997Z,91.29
2018-08-21T04:05:11.479Z,91.14
2018-08-21T04:07:39.734Z,91.51
2018-08-21T04:10:08.163Z,91.69
2018-08-21T04:12:36.571Z,91.16
2018-08-21T04:15:05.054Z,91.51
2018-08-21T04:17:33.194Z,91.20
2018-08-21T04:20:02.195Z,91.37
2018-08-21T04:22:33.241Z,91.48
2018-08-21T04:25:02.007Z,90.69
2018-08-21T04:27:33.194Z,91.08
2018-08-21T04:32:37.227Z,91.26
2018-08-21T04:35:05.816Z,90.93
2018-08-21T04:37:34.317Z,90.37
2018-08-21T04:40:02.868Z,90.55
2018-08-21T04:42:33.277Z,90.36
2018-08-21T04:45:04.297Z,90.24
2018-08-21T04:47:36.178Z,90.11
2018-08-21T04:50:05.507Z,90.19
2018-08-21T04:52:34.469Z,90.95
2018-08-21T04:55:02.962Z,90.24
2018-08-21T04:57:31.454Z,90.70
2018-08-21T05:00:01.840Z,91.13
2018-08-21T05:02:41.937Z,90.55
2018-08-21T05:05:10.841Z,91.96
2018-08-21T05:10:08.756Z,92.16
2018-08-21T05:12:39.311Z,91.93
2018-08-21T05:15:07.942Z,90.42
2018-08-21T05:17:51.269Z,89.64
2018-08-21T05:20:20.155Z,89.07
2018-08-21T05:22:48.734Z,89.67
2018-08-21T05:25:17.487Z,89.13
2018-08-21T05:27:51.423Z,88.17
2018-08-21T05:30:20.426Z,87.70
2018-08-21T05:32:50.667Z,88.35
2018-08-21T05:35:27.326Z,87.67
2018-08-21T05:37:56.447Z,88.52
2018-08-21T05:40:24.814Z,87.84
2018-08-21T05:42:52.983Z,87.52
2018-08-21T05:45:21.489Z,86.80
2018-08-21T05:47:50.227Z,86.57
2018-08-21T05:50:19.137Z,86.50
2018-08-21T05:52:47.486Z,86.17
2018-08-21T05:55:15.996Z,86.30
2018-08-21T05:57:45.325Z,86.38
2018-08-21T06:01:32.236Z,86.63
2018-08-21T06:04:00.937Z,86.38
2018-08-21T06:06:29.894Z,85.48
2018-08-21T06:08:58.351Z,85.56
2018-08-21T06:11:26.755Z,85.33
2018-08-21T06:13:55.973Z,84.64
2018-08-21T06:16:24.794Z,84.24
2018-08-21T06:18:53.936Z,84.64
2018-08-21T06:21:22.310Z,84.00
2018-08-21T06:23:50.918Z,83.82
2018-08-21T06:26:19.949Z,83.94
2018-08-21T06:28:48.397Z,83.92
2018-08-21T06:31:16.878Z,83.52
2018-08-21T06:33:45.830Z,83.29
2018-08-21T06:36:14.467Z,82.63
2018-08-21T06:38:43.379Z,83.00
2018-08-21T06:41:11.544Z,82.27
2018-08-21T06:43:49.903Z,82.17
2018-08-21T06:46:18.425Z,81.27
2018-08-21T06:48:47.215Z,81.73
2018-08-21T06:51:16.688Z,82.06
2018-08-21T06:53:45.103Z,82.63
2018-08-21T06:56:13.898Z,83.24
2018-08-21T06:58:42.359Z,81.10
2018-08-21T07:01:11.202Z,81.42
2018-08-21T07:03:39.750Z,81.17
2018-08-21T07:06:07.913Z,79.69
2018-08-21T07:08:44.352Z,78.75
2018-08-21T07:11:18.648Z,78.26
2018-08-21T07:13:46.998Z,77.78
2018-08-21T07:16:16.258Z,77.76
2018-08-21T07:18:44.677Z,77.28
2018-08-21T07:21:12.809Z,77.02
2018-08-21T07:23:41.336Z,78.24
2018-08-21T07:26:10.126Z,77.74
2018-08-21T07:28:38.537Z,77.65
2018-08-21T07:31:07.002Z,76.37
2018-08-21T07:33:35.458Z,76.71
2018-08-21T07:36:03.948Z,75.49
2018-08-21T07:38:42.690Z,75.23
2018-08-21T07:43:38.078Z,74.09
2018-08-21T07:46:10.878Z,73.76
2018-08-21T07:48:44.985Z,74.13
2018-08-21T07:51:13.763Z,74.25
2018-08-21T07:53:42.753Z,73.51
2018-08-21T07:56:12.870Z,73.82
2018-08-21T07:58:41.950Z,74.02
2018-08-21T08:01:10.340Z,73.42
2018-08-21T08:03:38.767Z,72.94
2018-08-21T08:06:07.743Z,73.01
2018-08-21T08:08:48.976Z,72.76
2018-08-21T08:11:17.658Z,72.22
2018-08-21T08:13:46.061Z,72.39
2018-08-21T08:16:15.082Z,72.29
2018-08-21T08:18:48.143Z,72.71
2018-08-21T08:21:22.355Z,72.64
2018-08-21T08:23:51.779Z,71.86
2018-08-21T08:26:20.518Z,71.45
2018-08-21T08:28:56.073Z,71.23
2018-08-21T08:31:25.142Z,71.61
2018-08-21T08:33:53.610Z,70.40
2018-08-21T08:36:21.942Z,70.24
2018-08-21T08:38:50.323Z,70.40
2018-08-21T08:41:24.220Z,67.43
2018-08-21T08:43:52.783Z,66.45
2018-08-21T08:46:22.098Z,65.57
2018-08-21T08:48:58.714Z,65.32
2018-08-21T08:51:27.522Z,65.46
2018-08-21T08:53:56.401Z,63.51
2018-08-21T08:56:26.675Z,63.60
2018-08-21T08:58:55.142Z,62.62
2018-08-21T09:01:23.622Z,62.64
2018-08-21T09:03:52.322Z,63.00
2018-08-21T09:06:27.878Z,62.43
2018-08-21T09:08:56.350Z,62.41
2018-08-21T09:11:25.206Z,62.87
2018-08-21T09:13:53.614Z,61.47
2018-08-21T09:16:22.350Z,58.88
2018-08-21T09:18:51.015Z,58.62
2018-08-21T09:21:19.139Z,56.58
2018-08-21T09:23:47.399Z,56.38
2018-08-21T09:26:24.109Z,56.71
2018-08-21T09:28:52.686Z,57.70
2018-08-21T09:31:21.206Z,56.82
2018-08-21T09:33:49.640Z,55.78
2018-08-21T09:36:17.979Z,56.31
2018-08-21T09:38:46.187Z,55.12
2018-08-21T09:41:15.718Z,54.80
2018-08-21T09:43:44.082Z,55.00
2018-08-21T09:46:12.379Z,54.37
2018-08-21T09:48:40.907Z,55.04
2018-08-21T09:51:09.959Z,56.11
2018-08-21T09:53:38.397Z,55.25
2018-08-21T09:56:06.807Z,56.11
2018-08-21T09:58:34.958Z,56.00
2018-08-21T10:01:08.346Z,53.38
2018-08-21T10:08:45.694Z,54.24
2018-08-21T10:11:13.947Z,53.93
2018-08-21T10:13:42.177Z,54.03
2018-08-21T10:16:10.611Z,53.85
2018-08-21T10:18:38.742Z,53.64
2018-08-21T10:21:11.260Z,53.07
2018-08-21T10:23:44.835Z,53.58
2018-08-21T10:26:38.234Z,52.10
2018-08-21T10:29:06.370Z,52.09
2018-08-21T10:31:37.961Z,50.93
2018-08-21T10:34:07.074Z,52.19
2018-08-21T10:36:35.958Z,54.62
2018-08-21T10:39:06.890Z,54.04
2018-08-21T10:41:35.370Z,52.84
2018-08-21T10:44:04.073Z,51.80
2018-08-21T10:46:32.171Z,51.55
2018-08-21T10:49:00.639Z,50.68
2018-08-21T10:51:28.746Z,50.08
2018-08-21T10:53:57.217Z,47.67
2018-08-21T10:56:25.633Z,48.97
2018-08-21T10:58:54.079Z,49.21
2018-08-21T11:01:22.533Z,47.88
2018-08-21T11:03:52.186Z,48.96
2018-08-21T11:06:20.834Z,49.14
2018-08-21T11:08:49.524Z,47.94
2018-08-21T11:11:18.006Z,47.60
2018-08-21T11:14:00.633Z,48.03
2018-08-21T11:16:30.394Z,49.08
2018-08-21T11:19:00.019Z,49.14
2018-08-21T11:21:28.778Z,50.04
2018-08-21T11:23:57.430Z,49.05
2018-08-21T11:26:26.107Z,49.71
2018-08-21T11:28:55.102Z,48.80
2018-08-21T11:31:23.901Z,48.42
2018-08-21T11:33:52.379Z,48.09
2018-08-21T11:36:21.159Z,45.09
2018-08-21T11:38:49.326Z,45.28
2018-08-21T11:41:18.140Z,46.28
2018-08-21T11:43:46.470Z,45.96
2018-08-21T11:46:14.917Z,43.53
2018-08-21T11:48:43.593Z,44.98
2018-08-21T11:51:12.267Z,44.17
2018-08-21T11:53:40.722Z,43.85
2018-08-21T11:56:09.194Z,43.98
2018-08-21T11:58:37.357Z,43.59
2018-08-21T12:01:05.501Z,43.95
2018-08-21T12:03:34.116Z,43.09
2018-08-21T12:06:02.629Z,43.39
2018-08-21T12:08:31.077Z,43.79
2018-08-21T12:10:59.222Z,44.45
2018-08-21T12:13:27.338Z,44.81
2018-08-21T12:15:55.481Z,44.32
2018-08-21T12:18:24.145Z,43.90
2018-08-21T12:20:52.661Z,43.69
2018-08-21T12:23:21.122Z,43.15
2018-08-21T12:25:49.254Z,42.05
2018-08-21T12:28:17.403Z,40.63
2018-08-21T12:30:45.887Z,41.15
2018-08-21T12:33:19.990Z,41.01
2018-08-21T12:35:48.126Z,41.13
2018-08-21T12:38:16.696Z,42.07
2018-08-21T12:40:45.350Z,43.66
2018-08-21T12:43:13.955Z,42.26
2018-08-21T12:45:54.414Z,42.34
2018-08-21T12:48:23.073Z,42.31
2018-08-21T12:50:51.529Z,42.55
2018-08-21T12:53:19.971Z,43.05
2018-08-21T12:55:48.558Z,42.82
2018-08-21T12:58:16.670Z,42.25
2018-08-21T13:00:45.115Z,42.50
2018-08-21T13:03:13.583Z,42.55
2018-08-21T13:05:42.050Z,42.81
2018-08-21T13:08:10.514Z,42.45
2018-08-21T13:10:39.051Z,42.46
2018-08-21T13:13:07.705Z,43.13
2018-08-21T13:15:35.853Z,42.49
2018-08-21T13:18:04.814Z,42.59
2018-08-21T13:20:33.291Z,41.19
2018-08-21T13:23:01.757Z,42.71
2018-08-21T13:25:30.321Z,41.61
2018-08-21T13:27:58.439Z,42.58
2018-08-21T13:30:26.919Z,40.70
2018-08-21T13:32:55.799Z,42.85
2018-08-21T13:35:23.930Z,42.67
2018-08-21T13:37:52.386Z,42.43
2018-08-21T13:40:20.850Z,42.06
2018-08-21T13:42:49.290Z,41.75
2018-08-21T13:45:17.415Z,42.19
2018-08-21T13:47:45.578Z,42.82
2018-08-21T13:50:13.918Z,42.41
2018-08-21T13:52:42.025Z,42.80
2018-08-21T13:55:10.696Z,42.90
2018-08-21T13:57:39.171Z,42.03
2018-08-21T14:00:07.317Z,43.01
2018-08-21T14:02:35.824Z,42.58
2018-08-21T14:05:04.563Z,42.04
2018-08-21T14:07:42.446Z,42.41
2018-08-21T14:10:11.014Z,43.23
2018-08-21T14:12:39.914Z,44.08
2018-08-21T14:15:11.302Z,44.10
2018-08-21T14:17:39.602Z,43.17
2018-08-21T14:20:08.425Z,42.88
2018-08-21T14:22:36.942Z,44.49
2018-08-21T14:25:05.430Z,43.66
2018-08-21T14:27:33.862Z,42.66
2018-08-21T14:30:02.553Z,43.59
2018-08-21T14:32:31.544Z,43.11
2018-08-21T14:35:00.936Z,43.24
2018-08-21T14:37:29.569Z,42.49
2018-08-21T14:39:59.208Z,43.04
2018-08-21T14:42:32.831Z,43.98
2018-08-21T14:45:02.374Z,44.43
2018-08-21T14:47:31.373Z,44.48
2018-08-21T14:50:00.067Z,44.33
2018-08-21T14:52:28.700Z,44.13
2018-08-21T14:54:57.579Z,43.49
2018-08-21T14:57:32.807Z,44.13
2018-08-21T15:00:01.732Z,44.21
2018-08-21T15:02:37.937Z,43.36
2018-08-21T15:05:07.334Z,44.02
2018-08-21T15:07:36.762Z,44.41
2018-08-21T15:10:05.122Z,44.10
2018-08-21T15:12:33.747Z,43.01
2018-08-21T15:15:02.049Z,43.52
2018-08-21T15:17:30.591Z,43.84
2018-08-21T15:19:59.263Z,44.22
2018-08-21T15:22:27.856Z,44.37
2018-08-21T15:24:56.709Z,44.46
2018-08-21T15:27:25.975Z,44.83
2018-08-21T15:29:54.078Z,45.12
2018-08-21T15:32:22.621Z,45.10
2018-08-21T15:34:51.074Z,45.02
2018-08-21T15:37:19.201Z,44.11
2018-08-21T15:39:47.463Z,43.78
2018-08-21T15:42:15.627Z,43.96
2018-08-21T15:44:43.734Z,43.87
2018-08-21T15:47:12.174Z,44.39
2018-08-21T15:49:40.300Z,44.48
2018-08-21T15:52:08.954Z,43.86
2018-08-21T15:54:37.413Z,43.33
2018-08-21T15:57:06.066Z,44.50
2018-08-21T15:59:34.514Z,43.98
2018-08-21T16:02:02.993Z,44.33
2018-08-21T16:04:31.506Z,44.83
2018-08-21T16:06:59.639Z,44.04
2018-08-21T16:09:28.097Z,44.64
2018-08-21T16:11:56.736Z,44.30
2018-08-21T16:14:25.385Z,45.39
2018-08-21T16:16:53.830Z,46.64
2018-08-21T16:19:22.577Z,46.57
2018-08-21T16:21:51.013Z,46.74
2018-08-21T16:24:19.454Z,45.96
2018-08-21T16:26:47.578Z,46.49
2018-08-21T16:29:16.014Z,47.01
2018-08-21T16:31:44.657Z,47.51
2018-08-21T16:34:13.087Z,47.51
2018-08-21T16:36:41.527Z,46.99
2018-08-21T16:39:12.030Z,47.71
2018-08-21T16:41:40.618Z,47.44
2018-08-21T16:44:09.411Z,46.53
2018-08-21T16:46:38.044Z,46.66
2018-08-21T16:49:06.882Z,46.51
2018-08-21T16:51:35.448Z,45.31
2018-08-21T16:54:04.308Z,46.06
2018-08-21T16:56:32.738Z,46.08
2018-08-21T16:59:01.178Z,46.34
2018-08-21T17:01:29.654Z,47.30
2018-08-21T17:03:57.758Z,47.82
2018-08-21T17:06:25.861Z,48.22
2018-08-21T17:08:54.305Z,47.50
2018-08-21T17:11:22.761Z,48.24
2018-08-21T17:13:51.445Z,48.06
2018-08-21T17:16:20.148Z,47.65
2018-08-21T17:18:48.293Z,47.34
2018-08-21T17:21:16.717Z,48.08
2018-08-21T17:23:45.236Z,48.16
2018-08-21T17:26:13.666Z,47.91
2018-08-21T17:28:42.101Z,47.89
2018-08-21T17:31:10.543Z,48.75
2018-08-21T17:33:39.005Z,48.71
2018-08-21T17:36:07.437Z,48.29
2018-08-21T17:38:35.549Z,49.03
2018-08-21T17:41:03.755Z,48.43
2018-08-21T17:43:32.202Z,49.41
2018-08-21T17:46:00.663Z,48.72
2018-08-21T17:48:28.893Z,49.56
2018-08-21T17:50:57.537Z,49.48
2018-08-21T17:53:25.672Z,49.93
2018-08-21T17:55:54.110Z,48.95
2018-08-21T17:58:22.757Z,49.46
2018-08-21T18:00:51.205Z,49.33
2018-08-21T18:03:19.648Z,50.16
2018-08-21T18:05:48.295Z,49.70
2018-08-21T18:08:17.029Z,50.73
2018-08-21T18:10:45.156Z,50.81
2018-08-21T18:13:13.607Z,51.28
2018-08-21T18:15:42.173Z,50.13
2018-08-21T18:18:10.722Z,50.89
2018-08-21T18:20:39.159Z,50.42
2018-08-21T18:23:07.633Z,50.88
2018-08-21T18:25:36.174Z,50.64
2018-08-21T18:28:04.298Z,50.89
2018-08-21T18:30:32.742Z,51.50
2018-08-21T18:33:00.870Z,51.68
2018-08-21T18:35:29.315Z,52.11
2018-08-21T18:37:57.958Z,53.28
2018-08-21T18:40:26.621Z,52.63
2018-08-21T18:42:55.062Z,53.81
2018-08-21T18:45:23.513Z,54.34
2018-08-21T18:47:51.948Z,54.97
2018-08-21T18:50:20.330Z,55.26
2018-08-21T18:52:48.926Z,54.78
2018-08-21T18:55:17.034Z,55.14
2018-08-21T18:57:45.390Z,55.95
2018-08-21T19:00:19.349Z,55.82
2018-08-21T19:02:47.821Z,56.14
2018-08-21T19:05:15.994Z,57.10
2018-08-21T19:07:44.363Z,56.54
2018-08-21T19:10:13.026Z,57.20
2018-08-21T19:12:41.154Z,57.54
2018-08-21T19:15:09.609Z,57.91
2018-08-21T19:17:38.073Z,58.29
2018-08-21T19:20:06.658Z,57.52
2018-08-21T19:22:34.766Z,58.11
2018-08-21T19:25:03.220Z,57.59
2018-08-21T19:27:31.843Z,58.24
2018-08-21T19:29:59.949Z,58.56
2018-08-21T19:32:28.077Z,58.15
2018-08-21T19:34:56.725Z,58.48
2018-08-21T19:37:25.165Z,58.96
2018-08-21T19:39:53.665Z,59.12
2018-08-21T19:42:22.128Z,59.05
2018-08-21T19:44:50.271Z,59.10
2018-08-21T19:47:18.719Z,59.76
2018-08-21T19:49:47.349Z,59.69
2018-08-21T19:52:15.806Z,60.34
2018-08-21T19:54:44.121Z,58.84
2018-08-21T19:57:12.229Z,59.84
2018-08-21T19:59:40.362Z,59.65
2018-08-21T20:02:08.853Z,59.21
2018-08-21T20:04:37.297Z,59.08
2018-08-21T20:07:05.822Z,58.70
2018-08-21T20:09:34.275Z,58.74
2018-08-21T20:12:02.388Z,59.39
2018-08-21T20:14:31.022Z,59.12
2018-08-21T20:16:59.137Z,58.97
2018-08-21T20:19:27.602Z,59.54
2018-08-21T20:21:56.042Z,59.31
2018-08-21T20:24:24.142Z,59.34
2018-08-21T20:26:52.258Z,59.79
2018-08-21T20:29:20.361Z,61.00
2018-08-21T20:31:48.814Z,60.85
2018-08-21T20:34:17.106Z,60.66
2018-08-21T20:36:45.607Z,61.30
2018-08-21T20:39:17.757Z,61.81
2018-08-21T20:41:46.237Z,62.00
2018-08-21T20:44:14.658Z,61.16
2018-08-21T20:46:42.789Z,61.21
2018-08-21T20:49:11.249Z,61.96
2018-08-21T20:51:39.695Z,61.66
2018-08-21T20:54:08.361Z,61.18
2018-08-21T20:56:36.489Z,60.69
2018-08-21T20:59:04.582Z,61.68
2018-08-21T21:01:32.940Z,61.81
2018-08-21T21:04:01.057Z,60.78
2018-08-21T21:06:29.509Z,61.44
2018-08-21T21:08:57.734Z,61.19
2018-08-21T21:11:26.440Z,61.54
2018-08-21T21:14:06.109Z,62.42
2018-08-21T21:16:45.675Z,63.16
2018-08-21T21:19:25.157Z,62.55
2018-08-21T21:22:04.793Z,62.86
2018-08-21T21:24:37.416Z,62.76
2018-08-21T21:27:06.028Z,63.77
2018-08-21T21:29:34.122Z,63.04
2018-08-21T21:32:02.564Z,63.12
2018-08-21T21:34:30.898Z,63.28
2018-08-21T21:36:59.022Z,63.66
2018-08-21T21:39:27.182Z,63.37
2018-08-21T21:41:55.636Z,64.01
2018-08-21T21:44:24.087Z,63.38
2018-08-21T21:46:52.538Z,64.12
2018-08-21T21:49:21.010Z,63.46
2018-08-21T21:51:49.441Z,63.59
2018-08-21T21:54:17.896Z,64.24
2018-08-21T21:56:46.481Z,64.06
2018-08-21T21:59:14.590Z,64.07
2018-08-21T22:01:43.077Z,63.80
2018-08-21T22:04:11.717Z,64.32
2018-08-21T22:06:40.166Z,64.25
2018-08-21T22:09:09.515Z,64.72
2018-08-21T22:11:38.273Z,63.89
2018-08-21T22:14:06.889Z,64.10
2018-08-21T22:16:35.154Z,64.08
2018-08-21T22:19:03.242Z,63.50
2018-08-21T22:21:31.551Z,63.84
2018-08-21T22:23:59.680Z,63.35
2018-08-21T22:26:27.823Z,63.56
2018-08-21T22:28:55.934Z,63.78
2018-08-21T22:31:24.278Z,64.68
2018-08-21T22:33:52.647Z,64.49
2018-08-21T22:36:21.101Z,65.20
2018-08-21T22:38:49.229Z,64.87
2018-08-21T22:41:17.340Z,65.51
2018-08-21T22:43:47.070Z,65.52
2018-08-21T22:46:15.182Z,66.12
2018-08-21T22:48:43.359Z,66.61
2018-08-21T22:51:11.451Z,66.47
2018-08-21T22:53:39.577Z,67.21
2018-08-21T22:56:07.678Z,67.49
2018-08-21T22:58:36.113Z,67.58
2018-08-21T23:01:04.221Z,68.38
2018-08-21T23:03:32.881Z,67.94
2018-08-21T23:06:01.342Z,67.97
2018-08-21T23:08:29.524Z,68.26
2018-08-21T23:10:57.653Z,68.39
2018-08-21T23:13:26.110Z,68.39
2018-08-21T23:15:54.652Z,69.01
2018-08-21T23:18:22.880Z,69.41
2018-08-21T23:20:51.024Z,68.94
2018-08-21T23:23:19.460Z,69.53
2018-08-21T23:25:47.910Z,69.50
2018-08-21T23:28:16.372Z,70.15
2018-08-21T23:30:44.803Z,70.28
2018-08-21T23:33:13.322Z,69.96
2018-08-21T23:35:41.434Z,69.83
2018-08-21T23:38:09.542Z,70.29
2018-08-21T23:40:37.641Z,70.21
2018-08-21T23:43:06.466Z,70.63
2018-08-21T23:45:34.593Z,71.23
2018-08-21T23:48:02.711Z,71.15
2018-08-21T23:50:30.830Z,71.33
2018-08-21T23:52:59.293Z,71.62
2018-08-21T23:55:27.734Z,71.55
2018-08-21T23:57:56.365Z,72.11
